To NAV CANADA Home Page Login to a new session Search on AWWS site Feedback and Comments Disclaimer Vers la page française équivalente Tips FAQ What's new on the site To the Forecasts and Observations / NOTAM section To "File a Flight Plan" website Publications and other links Update of the User's profile FIC Telephone Numbers My Weather Data Folder Route Weather Data Regional Weather Data Local Weather Data To the Forecasts and Observations / NOTAM section
Request Generated 04/25/2014 at 06:41:00 UTC . Weather information available at that time is displayed.

METAR/TAF

QUEBEC/JEAN LESAGE INTL/QC    

METAR CYQB 250600Z 27004KT 1/4SM R06/1100V2400FT/U FZFG VV001 M02/M02
A2995 RMK FG8 SLP145=
METAR CYQB 250500Z 25003KT 240V310 1/4SM R06/1200FT/N BR VV001
M00/M01 A2996 RMK FG8 SLP148=
METAR CYQB 250400Z VRB02KT 8SM OVC003 01/M00 A2996 RMK ST8 SLP150=

TAF CYQB 250538Z 2506/2606 VRB03KT 1/4SM FG VV001 TEMPO 2506/2510 5SM
BR OVC004
FM251000 28005KT P6SM SCT004 TEMPO 2510/2513 3SM BR BKN004
FM251300 25007KT P6SM FEW040
BECMG 2522/2524 06010KT
FM260400 05010KT P6SM BKN100
RMK NXT FCST BY 251200Z=
Your time UTC time
Weather data provided by Environment Canada and NAV CANADA